sensor_id;sensor_type;location;lat;lon;timestamp;P1;durP1;ratioP1;P2;durP2;ratioP2
39540;SDS011;25219;52.244;21.006;2022-12-18T00:00:46;36.00;;;16.98;;
39540;SDS011;25219;52.244;21.006;2022-12-18T00:03:12;34.45;;;16.63;;
39540;SDS011;25219;52.244;21.006;2022-12-18T00:05:45;40.30;;;16.55;;
39540;SDS011;25219;52.244;21.006;2022-12-18T00:08:10;42.55;;;17.58;;
39540;SDS011;25219;52.244;21.006;2022-12-18T00:10:35;40.03;;;17.52;;
39540;SDS011;25219;52.244;21.006;2022-12-18T00:13:01;39.35;;;17.42;;
39540;SDS011;25219;52.244;21.006;2022-12-18T00:15:26;44.40;;;17.90;;
39540;SDS011;25219;52.244;21.006;2022-12-18T00:17:52;41.70;;;18.97;;
39540;SDS011;25219;52.244;21.006;2022-12-18T00:20:17;39.50;;;17.38;;
39540;SDS011;25219;52.244;21.006;2022-12-18T00:22:48;43.00;;;17.98;;
39540;SDS011;25219;52.244;21.006;2022-12-18T00:25:13;42.15;;;17.83;;
39540;SDS011;25219;52.244;21.006;2022-12-18T00:27:38;40.38;;;18.08;;
39540;SDS011;25219;52.244;21.006;2022-12-18T00:30:04;41.67;;;19.08;;
39540;SDS011;25219;52.244;21.006;2022-12-18T00:32:32;33.05;;;16.48;;
39540;SDS011;25219;52.244;21.006;2022-12-18T00:34:57;39.95;;;17.38;;
39540;SDS011;25219;52.244;21.006;2022-12-18T00:37:22;37.00;;;16.95;;
39540;SDS011;25219;52.244;21.006;2022-12-18T00:39:48;41.47;;;17.42;;
39540;SDS011;25219;52.244;21.006;2022-12-18T00:42:13;38.35;;;17.45;;
39540;SDS011;25219;52.244;21.006;2022-12-18T00:44:56;37.60;;;16.88;;
39540;SDS011;25219;52.244;21.006;2022-12-18T00:47:22;38.17;;;16.65;;
39540;SDS011;25219;52.244;21.006;2022-12-18T00:49:47;39.38;;;17.45;;
39540;SDS011;25219;52.244;21.006;2022-12-18T00:52:12;37.15;;;16.60;;
39540;SDS011;25219;52.244;21.006;2022-12-18T00:54:37;39.10;;;16.80;;
39540;SDS011;25219;52.244;21.006;2022-12-18T00:57:02;40.35;;;16.55;;
39540;SDS011;25219;52.244;21.006;2022-12-18T00:59:28;35.47;;;16.95;;
39540;SDS011;25219;52.244;21.006;2022-12-18T01:01:56;39.35;;;17.02;;
39540;SDS011;25219;52.244;21.006;2022-12-18T01:04:24;37.75;;;16.75;;
39540;SDS011;25219;52.244;21.006;2022-12-18T01:06:49;36.88;;;16.05;;
39540;SDS011;25219;52.244;21.006;2022-12-18T01:09:14;36.85;;;15.90;;
39540;SDS011;25219;52.244;21.006;2022-12-18T01:11:40;40.53;;;17.38;;
39540;SDS011;25219;52.244;21.006;2022-12-18T01:14:05;37.70;;;17.73;;
39540;SDS011;25219;52.244;21.006;2022-12-18T01:16:30;38.55;;;16.15;;
39540;SDS011;25219;52.244;21.006;2022-12-18T01:18:55;32.70;;;15.55;;
39540;SDS011;25219;52.244;21.006;2022-12-18T01:21:21;39.33;;;15.93;;
39540;SDS011;25219;52.244;21.006;2022-12-18T01:23:50;41.10;;;16.40;;
39540;SDS011;25219;52.244;21.006;2022-12-18T01:26:18;38.22;;;15.85;;
39540;SDS011;25219;52.244;21.006;2022-12-18T01:28:43;31.98;;;15.45;;
39540;SDS011;25219;52.244;21.006;2022-12-18T01:31:14;33.95;;;15.77;;
39540;SDS011;25219;52.244;21.006;2022-12-18T01:33:39;37.55;;;16.92;;
39540;SDS011;25219;52.244;21.006;2022-12-18T01:36:05;37.42;;;16.55;;
39540;SDS011;25219;52.244;21.006;2022-12-18T01:38:30;44.03;;;16.60;;
39540;SDS011;25219;52.244;21.006;2022-12-18T01:40:59;36.88;;;15.55;;
39540;SDS011;25219;52.244;21.006;2022-12-18T01:43:40;35.38;;;16.13;;
39540;SDS011;25219;52.244;21.006;2022-12-18T01:46:06;39.55;;;15.77;;
39540;SDS011;25219;52.244;21.006;2022-12-18T01:48:31;39.23;;;16.47;;
39540;SDS011;25219;52.244;21.006;2022-12-18T01:50:56;37.38;;;15.90;;
39540;SDS011;25219;52.244;21.006;2022-12-18T01:53:22;30.33;;;14.45;;
39540;SDS011;25219;52.244;21.006;2022-12-18T01:55:49;40.40;;;16.50;;
39540;SDS011;25219;52.244;21.006;2022-12-18T01:58:15;40.22;;;15.43;;
39540;SDS011;25219;52.244;21.006;2022-12-18T02:00:43;41.38;;;16.02;;
39540;SDS011;25219;52.244;21.006;2022-12-18T02:03:08;37.10;;;15.68;;
39540;SDS011;25219;52.244;21.006;2022-12-18T02:05:44;39.05;;;15.77;;
39540;SDS011;25219;52.244;21.006;2022-12-18T02:08:13;36.08;;;15.10;;
39540;SDS011;25219;52.244;21.006;2022-12-18T02:10:46;22.50;;;10.98;;
39540;SDS011;25219;52.244;21.006;2022-12-18T02:15:39;34.90;;;15.93;;
39540;SDS011;25219;52.244;21.006;2022-12-18T02:18:07;35.25;;;15.30;;
39540;SDS011;25219;52.244;21.006;2022-12-18T02:20:39;35.25;;;15.43;;
39540;SDS011;25219;52.244;21.006;2022-12-18T02:25:40;37.72;;;15.73;;
39540;SDS011;25219;52.244;21.006;2022-12-18T02:28:11;37.85;;;13.75;;
39540;SDS011;25219;52.244;21.006;2022-12-18T02:30:40;34.40;;;15.20;;
39540;SDS011;25219;52.244;21.006;2022-12-18T02:33:09;37.55;;;15.00;;
39540;SDS011;25219;52.244;21.006;2022-12-18T02:35:35;34.97;;;13.57;;
39540;SDS011;25219;52.244;21.006;2022-12-18T02:38:01;32.33;;;14.57;;
39540;SDS011;25219;52.244;21.006;2022-12-18T02:40:28;35.13;;;14.50;;
39540;SDS011;25219;52.244;21.006;2022-12-18T02:42:53;33.95;;;13.40;;
39540;SDS011;25219;52.244;21.006;2022-12-18T02:45:20;31.88;;;14.00;;
39540;SDS011;25219;52.244;21.006;2022-12-18T02:47:46;36.05;;;15.57;;
39540;SDS011;25219;52.244;21.006;2022-12-18T02:57:48;34.30;;;13.50;;
39540;SDS011;25219;52.244;21.006;2022-12-18T03:00:20;35.15;;;14.68;;
39540;SDS011;25219;52.244;21.006;2022-12-18T03:06:06;28.95;;;13.00;;
39540;SDS011;25219;52.244;21.006;2022-12-18T03:08:36;40.83;;;14.60;;
39540;SDS011;25219;52.244;21.006;2022-12-18T03:11:07;29.20;;;13.40;;
39540;SDS011;25219;52.244;21.006;2022-12-18T03:13:34;33.33;;;13.70;;
39540;SDS011;25219;52.244;21.006;2022-12-18T03:16:00;32.60;;;13.50;;
39540;SDS011;25219;52.244;21.006;2022-12-18T03:18:30;38.85;;;14.57;;
39540;SDS011;25219;52.244;21.006;2022-12-18T03:20:56;34.45;;;14.43;;
39540;SDS011;25219;52.244;21.006;2022-12-18T03:23:23;31.40;;;13.10;;
39540;SDS011;25219;52.244;21.006;2022-12-18T03:25:50;30.73;;;13.88;;
39540;SDS011;25219;52.244;21.006;2022-12-18T03:28:18;30.80;;;12.50;;
39540;SDS011;25219;52.244;21.006;2022-12-18T03:30:44;30.15;;;13.20;;
39540;SDS011;25219;52.244;21.006;2022-12-18T03:33:12;33.88;;;13.30;;
39540;SDS011;25219;52.244;21.006;2022-12-18T03:35:40;31.40;;;12.88;;
39540;SDS011;25219;52.244;21.006;2022-12-18T03:38:08;32.22;;;13.15;;
39540;SDS011;25219;52.244;21.006;2022-12-18T03:43:11;29.48;;;12.32;;
39540;SDS011;25219;52.244;21.006;2022-12-18T03:45:42;29.38;;;12.23;;
39540;SDS011;25219;52.244;21.006;2022-12-18T03:48:17;29.02;;;12.60;;
39540;SDS011;25219;52.244;21.006;2022-12-18T03:50:49;29.65;;;12.25;;
39540;SDS011;25219;52.244;21.006;2022-12-18T03:53:25;26.58;;;12.57;;
39540;SDS011;25219;52.244;21.006;2022-12-18T03:55:53;32.13;;;13.45;;
39540;SDS011;25219;52.244;21.006;2022-12-18T03:58:21;30.25;;;13.13;;
39540;SDS011;25219;52.244;21.006;2022-12-18T04:00:47;24.65;;;11.30;;
39540;SDS011;25219;52.244;21.006;2022-12-18T04:03:16;28.65;;;11.65;;
39540;SDS011;25219;52.244;21.006;2022-12-18T04:05:43;24.00;;;11.02;;
39540;SDS011;25219;52.244;21.006;2022-12-18T04:08:09;29.80;;;12.57;;
39540;SDS011;25219;52.244;21.006;2022-12-18T04:10:34;29.20;;;13.40;;
39540;SDS011;25219;52.244;21.006;2022-12-18T04:13:00;26.95;;;11.75;;
39540;SDS011;25219;52.244;21.006;2022-12-18T04:15:25;26.00;;;11.97;;
39540;SDS011;25219;52.244;21.006;2022-12-18T04:17:51;32.20;;;12.85;;
39540;SDS011;25219;52.244;21.006;2022-12-18T04:20:16;36.55;;;12.93;;
39540;SDS011;25219;52.244;21.006;2022-12-18T04:22:42;32.90;;;12.68;;
39540;SDS011;25219;52.244;21.006;2022-12-18T04:25:07;31.25;;;12.55;;
39540;SDS011;25219;52.244;21.006;2022-12-18T04:27:33;29.10;;;11.05;;
39540;SDS011;25219;52.244;21.006;2022-12-18T04:29:58;30.52;;;13.07;;
39540;SDS011;25219;52.244;21.006;2022-12-18T04:32:23;31.02;;;11.63;;
39540;SDS011;25219;52.244;21.006;2022-12-18T04:34:48;28.73;;;12.50;;
39540;SDS011;25219;52.244;21.006;2022-12-18T04:37:14;25.13;;;11.33;;
39540;SDS011;25219;52.244;21.006;2022-12-18T04:39:39;30.65;;;12.15;;
39540;SDS011;25219;52.244;21.006;2022-12-18T04:42:04;31.07;;;12.07;;
39540;SDS011;25219;52.244;21.006;2022-12-18T04:44:29;28.52;;;12.20;;
39540;SDS011;25219;52.244;21.006;2022-12-18T04:46:55;29.90;;;12.25;;
39540;SDS011;25219;52.244;21.006;2022-12-18T04:49:21;29.95;;;12.40;;
39540;SDS011;25219;52.244;21.006;2022-12-18T04:51:48;33.70;;;12.20;;
39540;SDS011;25219;52.244;21.006;2022-12-18T04:54:13;30.00;;;12.40;;
39540;SDS011;25219;52.244;21.006;2022-12-18T04:56:38;32.25;;;12.20;;
39540;SDS011;25219;52.244;21.006;2022-12-18T04:59:04;29.58;;;12.70;;
39540;SDS011;25219;52.244;21.006;2022-12-18T05:01:29;33.15;;;12.75;;
39540;SDS011;25219;52.244;21.006;2022-12-18T05:03:55;26.23;;;12.13;;
39540;SDS011;25219;52.244;21.006;2022-12-18T05:06:20;32.03;;;12.18;;
39540;SDS011;25219;52.244;21.006;2022-12-18T05:08:46;26.05;;;11.57;;
39540;SDS011;25219;52.244;21.006;2022-12-18T05:11:12;27.93;;;11.57;;
39540;SDS011;25219;52.244;21.006;2022-12-18T05:13:40;31.65;;;12.80;;
39540;SDS011;25219;52.244;21.006;2022-12-18T05:16:06;33.45;;;12.25;;
39540;SDS011;25219;52.244;21.006;2022-12-18T05:18:33;30.70;;;12.35;;
39540;SDS011;25219;52.244;21.006;2022-12-18T05:20:58;33.17;;;12.55;;
39540;SDS011;25219;52.244;21.006;2022-12-18T05:23:26;28.92;;;12.43;;
39540;SDS011;25219;52.244;21.006;2022-12-18T05:25:52;33.25;;;12.02;;
39540;SDS011;25219;52.244;21.006;2022-12-18T05:28:18;32.85;;;12.77;;
39540;SDS011;25219;52.244;21.006;2022-12-18T05:30:47;30.73;;;12.38;;
39540;SDS011;25219;52.244;21.006;2022-12-18T05:33:15;28.45;;;12.15;;
39540;SDS011;25219;52.244;21.006;2022-12-18T05:35:43;27.83;;;11.77;;
39540;SDS011;25219;52.244;21.006;2022-12-18T05:38:11;27.48;;;11.55;;
39540;SDS011;25219;52.244;21.006;2022-12-18T05:40:36;32.35;;;12.13;;
39540;SDS011;25219;52.244;21.006;2022-12-18T05:43:01;25.70;;;11.88;;
39540;SDS011;25219;52.244;21.006;2022-12-18T05:45:27;33.97;;;13.75;;
39540;SDS011;25219;52.244;21.006;2022-12-18T05:47:52;33.63;;;12.87;;
39540;SDS011;25219;52.244;21.006;2022-12-18T05:50:17;38.00;;;14.32;;
39540;SDS011;25219;52.244;21.006;2022-12-18T05:52:42;35.58;;;13.60;;
39540;SDS011;25219;52.244;21.006;2022-12-18T05:55:07;42.83;;;15.20;;
39540;SDS011;25219;52.244;21.006;2022-12-18T05:57:33;37.33;;;14.55;;
39540;SDS011;25219;52.244;21.006;2022-12-18T05:59:58;43.25;;;15.60;;
39540;SDS011;25219;52.244;21.006;2022-12-18T06:02:23;41.00;;;14.43;;
39540;SDS011;25219;52.244;21.006;2022-12-18T06:04:51;40.15;;;15.07;;
39540;SDS011;25219;52.244;21.006;2022-12-18T06:07:16;38.55;;;15.05;;
39540;SDS011;25219;52.244;21.006;2022-12-18T06:09:41;50.35;;;17.55;;
39540;SDS011;25219;52.244;21.006;2022-12-18T06:12:06;48.22;;;16.42;;
39540;SDS011;25219;52.244;21.006;2022-12-18T06:14:32;53.03;;;17.88;;
39540;SDS011;25219;52.244;21.006;2022-12-18T06:16:57;44.45;;;16.10;;
39540;SDS011;25219;52.244;21.006;2022-12-18T06:19:22;54.28;;;19.30;;
39540;SDS011;25219;52.244;21.006;2022-12-18T06:21:47;46.70;;;17.50;;
39540;SDS011;25219;52.244;21.006;2022-12-18T06:24:14;47.60;;;16.45;;
39540;SDS011;25219;52.244;21.006;2022-12-18T06:26:39;54.95;;;18.27;;
39540;SDS011;25219;52.244;21.006;2022-12-18T06:29:04;49.65;;;17.77;;
39540;SDS011;25219;52.244;21.006;2022-12-18T06:31:30;52.05;;;18.45;;
39540;SDS011;25219;52.244;21.006;2022-12-18T06:33:55;52.97;;;19.08;;
39540;SDS011;25219;52.244;21.006;2022-12-18T06:36:20;57.83;;;18.70;;
39540;SDS011;25219;52.244;21.006;2022-12-18T06:38:46;55.80;;;18.45;;
39540;SDS011;25219;52.244;21.006;2022-12-18T06:41:12;50.83;;;18.90;;
39540;SDS011;25219;52.244;21.006;2022-12-18T06:43:38;58.40;;;20.35;;
39540;SDS011;25219;52.244;21.006;2022-12-18T06:46:03;56.42;;;19.25;;
39540;SDS011;25219;52.244;21.006;2022-12-18T06:48:31;57.67;;;18.52;;
39540;SDS011;25219;52.244;21.006;2022-12-18T06:50:56;55.10;;;18.52;;
39540;SDS011;25219;52.244;21.006;2022-12-18T06:53:22;62.42;;;20.77;;
39540;SDS011;25219;52.244;21.006;2022-12-18T06:55:47;57.72;;;18.10;;
39540;SDS011;25219;52.244;21.006;2022-12-18T06:58:14;47.33;;;17.13;;
39540;SDS011;25219;52.244;21.006;2022-12-18T07:00:41;52.00;;;18.13;;
39540;SDS011;25219;52.244;21.006;2022-12-18T07:03:07;46.25;;;17.35;;
39540;SDS011;25219;52.244;21.006;2022-12-18T07:05:32;48.13;;;18.67;;
39540;SDS011;25219;52.244;21.006;2022-12-18T07:07:57;60.70;;;19.65;;
39540;SDS011;25219;52.244;21.006;2022-12-18T07:10:23;53.78;;;19.50;;
39540;SDS011;25219;52.244;21.006;2022-12-18T07:12:50;54.35;;;19.02;;
39540;SDS011;25219;52.244;21.006;2022-12-18T07:15:17;61.78;;;20.20;;
39540;SDS011;25219;52.244;21.006;2022-12-18T07:17:42;53.30;;;18.87;;
39540;SDS011;25219;52.244;21.006;2022-12-18T07:20:08;47.10;;;17.13;;
39540;SDS011;25219;52.244;21.006;2022-12-18T07:22:33;45.72;;;17.50;;
39540;SDS011;25219;52.244;21.006;2022-12-18T07:24:58;51.67;;;18.45;;
39540;SDS011;25219;52.244;21.006;2022-12-18T07:27:24;44.10;;;16.85;;
39540;SDS011;25219;52.244;21.006;2022-12-18T07:29:51;50.20;;;17.67;;
39540;SDS011;25219;52.244;21.006;2022-12-18T07:32:16;55.05;;;18.02;;
39540;SDS011;25219;52.244;21.006;2022-12-18T07:34:41;59.75;;;19.98;;
39540;SDS011;25219;52.244;21.006;2022-12-18T07:37:06;46.33;;;17.45;;
39540;SDS011;25219;52.244;21.006;2022-12-18T07:39:32;58.70;;;20.00;;
39540;SDS011;25219;52.244;21.006;2022-12-18T07:41:57;53.45;;;17.75;;
39540;SDS011;25219;52.244;21.006;2022-12-18T07:44:41;55.47;;;19.13;;
39540;SDS011;25219;52.244;21.006;2022-12-18T07:47:09;57.30;;;19.15;;
39540;SDS011;25219;52.244;21.006;2022-12-18T07:49:35;51.95;;;19.52;;
39540;SDS011;25219;52.244;21.006;2022-12-18T07:52:01;54.35;;;18.95;;
39540;SDS011;25219;52.244;21.006;2022-12-18T07:54:28;51.08;;;18.70;;
39540;SDS011;25219;52.244;21.006;2022-12-18T07:56:54;57.50;;;19.65;;
39540;SDS011;25219;52.244;21.006;2022-12-18T07:59:20;63.72;;;19.08;;
39540;SDS011;25219;52.244;21.006;2022-12-18T08:01:45;56.95;;;18.42;;
39540;SDS011;25219;52.244;21.006;2022-12-18T08:04:10;52.95;;;19.63;;
39540;SDS011;25219;52.244;21.006;2022-12-18T08:06:37;49.13;;;17.58;;
39540;SDS011;25219;52.244;21.006;2022-12-18T08:09:02;53.63;;;20.20;;
39540;SDS011;25219;52.244;21.006;2022-12-18T08:11:27;50.47;;;18.17;;
39540;SDS011;25219;52.244;21.006;2022-12-18T08:13:53;48.63;;;17.67;;
39540;SDS011;25219;52.244;21.006;2022-12-18T08:16:19;53.30;;;19.45;;
39540;SDS011;25219;52.244;21.006;2022-12-18T08:18:44;53.22;;;18.77;;
39540;SDS011;25219;52.244;21.006;2022-12-18T08:21:10;50.25;;;18.25;;
39540;SDS011;25219;52.244;21.006;2022-12-18T08:23:38;54.58;;;19.52;;
39540;SDS011;25219;52.244;21.006;2022-12-18T08:26:03;48.08;;;18.33;;
39540;SDS011;25219;52.244;21.006;2022-12-18T08:28:28;50.33;;;19.73;;
39540;SDS011;25219;52.244;21.006;2022-12-18T08:30:54;51.53;;;18.65;;
39540;SDS011;25219;52.244;21.006;2022-12-18T08:33:21;53.30;;;18.35;;
39540;SDS011;25219;52.244;21.006;2022-12-18T08:35:46;52.67;;;18.70;;
39540;SDS011;25219;52.244;21.006;2022-12-18T08:40:54;51.10;;;17.40;;
39540;SDS011;25219;52.244;21.006;2022-12-18T08:43:19;49.50;;;18.58;;
39540;SDS011;25219;52.244;21.006;2022-12-18T08:46:03;47.90;;;17.98;;
39540;SDS011;25219;52.244;21.006;2022-12-18T08:48:28;48.17;;;17.38;;
39540;SDS011;25219;52.244;21.006;2022-12-18T08:50:54;43.10;;;17.37;;
39540;SDS011;25219;52.244;21.006;2022-12-18T08:53:20;44.47;;;16.58;;
39540;SDS011;25219;52.244;21.006;2022-12-18T08:55:45;50.38;;;17.20;;
39540;SDS011;25219;52.244;21.006;2022-12-18T08:58:13;51.65;;;17.25;;
39540;SDS011;25219;52.244;21.006;2022-12-18T09:00:38;50.78;;;17.95;;
39540;SDS011;25219;52.244;21.006;2022-12-18T09:03:03;47.40;;;16.33;;
39540;SDS011;25219;52.244;21.006;2022-12-18T09:05:31;43.42;;;15.88;;
39540;SDS011;25219;52.244;21.006;2022-12-18T09:07:56;45.95;;;17.50;;
39540;SDS011;25219;52.244;21.006;2022-12-18T09:10:21;45.85;;;16.17;;
39540;SDS011;25219;52.244;21.006;2022-12-18T09:12:46;45.75;;;16.60;;
39540;SDS011;25219;52.244;21.006;2022-12-18T09:15:13;51.30;;;18.30;;
39540;SDS011;25219;52.244;21.006;2022-12-18T09:17:38;47.90;;;18.17;;
39540;SDS011;25219;52.244;21.006;2022-12-18T09:20:04;53.63;;;18.17;;
39540;SDS011;25219;52.244;21.006;2022-12-18T09:22:32;44.72;;;17.80;;
39540;SDS011;25219;52.244;21.006;2022-12-18T09:24:57;48.28;;;17.45;;
39540;SDS011;25219;52.244;21.006;2022-12-18T09:27:22;48.13;;;18.58;;
39540;SDS011;25219;52.244;21.006;2022-12-18T09:29:50;51.03;;;19.05;;
39540;SDS011;25219;52.244;21.006;2022-12-18T09:32:15;50.88;;;18.50;;
39540;SDS011;25219;52.244;21.006;2022-12-18T09:34:40;42.33;;;16.83;;
39540;SDS011;25219;52.244;21.006;2022-12-18T09:37:06;51.38;;;18.17;;
39540;SDS011;25219;52.244;21.006;2022-12-18T09:39:33;48.08;;;18.38;;
39540;SDS011;25219;52.244;21.006;2022-12-18T09:41:58;46.50;;;18.42;;
39540;SDS011;25219;52.244;21.006;2022-12-18T09:49:20;58.28;;;21.42;;
39540;SDS011;25219;52.244;21.006;2022-12-18T09:51:48;56.33;;;19.63;;
39540;SDS011;25219;52.244;21.006;2022-12-18T09:54:17;61.58;;;21.02;;
39540;SDS011;25219;52.244;21.006;2022-12-18T09:56:43;49.20;;;19.77;;
39540;SDS011;25219;52.244;21.006;2022-12-18T09:59:23;57.03;;;21.90;;
39540;SDS011;25219;52.244;21.006;2022-12-18T10:01:49;54.83;;;23.23;;
39540;SDS011;25219;52.244;21.006;2022-12-18T10:04:14;56.20;;;21.92;;
39540;SDS011;25219;52.244;21.006;2022-12-18T10:06:46;56.75;;;22.77;;
39540;SDS011;25219;52.244;21.006;2022-12-18T10:11:50;60.80;;;22.17;;
39540;SDS011;25219;52.244;21.006;2022-12-18T10:14:25;55.13;;;22.30;;
39540;SDS011;25219;52.244;21.006;2022-12-18T10:19:37;57.65;;;23.08;;
39540;SDS011;25219;52.244;21.006;2022-12-18T10:25:01;68.75;;;25.80;;
39540;SDS011;25219;52.244;21.006;2022-12-18T10:27:29;59.67;;;23.50;;
39540;SDS011;25219;52.244;21.006;2022-12-18T10:29:55;60.55;;;22.83;;
39540;SDS011;25219;52.244;21.006;2022-12-18T10:32:25;59.53;;;22.30;;
39540;SDS011;25219;52.244;21.006;2022-12-18T10:34:51;50.35;;;19.73;;
39540;SDS011;25219;52.244;21.006;2022-12-18T10:37:18;63.33;;;23.75;;
39540;SDS011;25219;52.244;21.006;2022-12-18T10:39:45;52.13;;;22.38;;
39540;SDS011;25219;52.244;21.006;2022-12-18T10:42:18;64.53;;;25.38;;
39540;SDS011;25219;52.244;21.006;2022-12-18T10:44:44;65.60;;;22.85;;
39540;SDS011;25219;52.244;21.006;2022-12-18T10:47:11;60.13;;;22.52;;
39540;SDS011;25219;52.244;21.006;2022-12-18T10:49:37;65.03;;;22.92;;
39540;SDS011;25219;52.244;21.006;2022-12-18T10:52:07;59.80;;;23.73;;
39540;SDS011;25219;52.244;21.006;2022-12-18T10:54:32;56.80;;;19.75;;
39540;SDS011;25219;52.244;21.006;2022-12-18T10:57:14;58.42;;;22.63;;
39540;SDS011;25219;52.244;21.006;2022-12-18T11:02:07;59.20;;;21.90;;
39540;SDS011;25219;52.244;21.006;2022-12-18T11:04:51;65.72;;;22.83;;
39540;SDS011;25219;52.244;21.006;2022-12-18T11:07:16;64.78;;;22.70;;
39540;SDS011;25219;52.244;21.006;2022-12-18T11:09:42;60.25;;;22.25;;
39540;SDS011;25219;52.244;21.006;2022-12-18T11:19:41;58.80;;;22.08;;
39540;SDS011;25219;52.244;21.006;2022-12-18T11:24:52;67.60;;;23.00;;
39540;SDS011;25219;52.244;21.006;2022-12-18T11:27:18;72.30;;;23.63;;
39540;SDS011;25219;52.244;21.006;2022-12-18T11:29:43;73.28;;;24.88;;
39540;SDS011;25219;52.244;21.006;2022-12-18T11:34:59;65.68;;;24.60;;
39540;SDS011;25219;52.244;21.006;2022-12-18T11:37:26;70.18;;;24.70;;
39540;SDS011;25219;52.244;21.006;2022-12-18T11:39:56;68.28;;;24.23;;
39540;SDS011;25219;52.244;21.006;2022-12-18T11:47:25;61.75;;;23.65;;
39540;SDS011;25219;52.244;21.006;2022-12-18T11:49:55;63.83;;;22.50;;
39540;SDS011;25219;52.244;21.006;2022-12-18T11:52:25;66.72;;;23.58;;
39540;SDS011;25219;52.244;21.006;2022-12-18T11:54:53;67.85;;;24.67;;
39540;SDS011;25219;52.244;21.006;2022-12-18T12:15:38;60.80;;;22.52;;
39540;SDS011;25219;52.244;21.006;2022-12-18T12:31:12;68.82;;;23.08;;
39540;SDS011;25219;52.244;21.006;2022-12-18T12:36:13;56.85;;;21.60;;
39540;SDS011;25219;52.244;21.006;2022-12-18T12:38:50;72.10;;;23.00;;
39540;SDS011;25219;52.244;21.006;2022-12-18T12:41:17;59.22;;;22.55;;
39540;SDS011;25219;52.244;21.006;2022-12-18T12:44:02;65.35;;;23.65;;
39540;SDS011;25219;52.244;21.006;2022-12-18T12:46:29;70.80;;;24.77;;
39540;SDS011;25219;52.244;21.006;2022-12-18T12:48:56;56.28;;;20.80;;
39540;SDS011;25219;52.244;21.006;2022-12-18T12:51:26;58.97;;;22.15;;
39540;SDS011;25219;52.244;21.006;2022-12-18T12:53:53;60.55;;;23.70;;
39540;SDS011;25219;52.244;21.006;2022-12-18T12:56:19;69.70;;;24.67;;
39540;SDS011;25219;52.244;21.006;2022-12-18T13:06:32;75.25;;;27.25;;
39540;SDS011;25219;52.244;21.006;2022-12-18T13:09:01;62.73;;;25.10;;
39540;SDS011;25219;52.244;21.006;2022-12-18T13:14:20;76.47;;;26.20;;
39540;SDS011;25219;52.244;21.006;2022-12-18T13:16:46;70.03;;;24.95;;
39540;SDS011;25219;52.244;21.006;2022-12-18T13:19:18;70.43;;;25.58;;
39540;SDS011;25219;52.244;21.006;2022-12-18T13:21:45;71.47;;;25.75;;
39540;SDS011;25219;52.244;21.006;2022-12-18T13:24:26;69.57;;;24.80;;
39540;SDS011;25219;52.244;21.006;2022-12-18T13:26:52;63.13;;;25.60;;
39540;SDS011;25219;52.244;21.006;2022-12-18T13:32:01;65.90;;;24.95;;
39540;SDS011;25219;52.244;21.006;2022-12-18T13:34:27;64.60;;;24.15;;
39540;SDS011;25219;52.244;21.006;2022-12-18T13:36:55;66.63;;;24.23;;
39540;SDS011;25219;52.244;21.006;2022-12-18T13:39:22;62.65;;;24.17;;
39540;SDS011;25219;52.244;21.006;2022-12-18T13:41:51;70.55;;;25.27;;
39540;SDS011;25219;52.244;21.006;2022-12-18T13:46:49;57.83;;;22.67;;
39540;SDS011;25219;52.244;21.006;2022-12-18T13:49:22;70.22;;;24.30;;
39540;SDS011;25219;52.244;21.006;2022-12-18T13:51:49;66.35;;;24.60;;
39540;SDS011;25219;52.244;21.006;2022-12-18T13:56:44;62.90;;;24.60;;
39540;SDS011;25219;52.244;21.006;2022-12-18T14:01:46;73.22;;;25.90;;
39540;SDS011;25219;52.244;21.006;2022-12-18T14:04:12;68.43;;;23.17;;
39540;SDS011;25219;52.244;21.006;2022-12-18T14:06:37;70.68;;;25.77;;
39540;SDS011;25219;52.244;21.006;2022-12-18T14:09:03;77.35;;;25.27;;
39540;SDS011;25219;52.244;21.006;2022-12-18T14:11:28;70.50;;;26.10;;
39540;SDS011;25219;52.244;21.006;2022-12-18T14:13:54;59.08;;;22.95;;
39540;SDS011;25219;52.244;21.006;2022-12-18T14:16:19;67.80;;;25.38;;
39540;SDS011;25219;52.244;21.006;2022-12-18T14:18:46;63.28;;;23.60;;
39540;SDS011;25219;52.244;21.006;2022-12-18T14:21:23;72.40;;;25.90;;
39540;SDS011;25219;52.244;21.006;2022-12-18T14:24:02;62.28;;;24.38;;
39540;SDS011;25219;52.244;21.006;2022-12-18T14:26:29;69.10;;;23.98;;
39540;SDS011;25219;52.244;21.006;2022-12-18T14:28:58;68.43;;;25.50;;
39540;SDS011;25219;52.244;21.006;2022-12-18T14:31:26;59.63;;;23.65;;
39540;SDS011;25219;52.244;21.006;2022-12-18T14:33:53;55.55;;;21.88;;
39540;SDS011;25219;52.244;21.006;2022-12-18T14:36:20;62.25;;;22.65;;
39540;SDS011;25219;52.244;21.006;2022-12-18T14:38:52;63.28;;;23.27;;
39540;SDS011;25219;52.244;21.006;2022-12-18T14:41:19;67.50;;;25.55;;
39540;SDS011;25219;52.244;21.006;2022-12-18T14:43:46;70.78;;;26.02;;
39540;SDS011;25219;52.244;21.006;2022-12-18T14:46:26;61.33;;;24.17;;
39540;SDS011;25219;52.244;21.006;2022-12-18T14:48:52;62.17;;;23.52;;
39540;SDS011;25219;52.244;21.006;2022-12-18T14:51:27;62.03;;;24.15;;
39540;SDS011;25219;52.244;21.006;2022-12-18T14:56:22;69.55;;;24.67;;
39540;SDS011;25219;52.244;21.006;2022-12-18T14:58:48;79.60;;;25.20;;
39540;SDS011;25219;52.244;21.006;2022-12-18T15:01:18;73.60;;;25.58;;
39540;SDS011;25219;52.244;21.006;2022-12-18T15:03:43;74.10;;;25.45;;
39540;SDS011;25219;52.244;21.006;2022-12-18T15:06:15;73.55;;;26.02;;
39540;SDS011;25219;52.244;21.006;2022-12-18T15:08:41;69.43;;;25.88;;
39540;SDS011;25219;52.244;21.006;2022-12-18T15:11:24;78.40;;;25.98;;
39540;SDS011;25219;52.244;21.006;2022-12-18T15:13:50;69.55;;;24.77;;
39540;SDS011;25219;52.244;21.006;2022-12-18T15:16:15;71.82;;;27.13;;
39540;SDS011;25219;52.244;21.006;2022-12-18T15:18:41;67.88;;;25.30;;
39540;SDS011;25219;52.244;21.006;2022-12-18T15:21:08;66.90;;;25.55;;
39540;SDS011;25219;52.244;21.006;2022-12-18T15:26:10;75.70;;;26.17;;
39540;SDS011;25219;52.244;21.006;2022-12-18T15:28:50;69.88;;;26.00;;
39540;SDS011;25219;52.244;21.006;2022-12-18T15:34:00;63.27;;;24.80;;
39540;SDS011;25219;52.244;21.006;2022-12-18T15:36:27;57.42;;;21.95;;
39540;SDS011;25219;52.244;21.006;2022-12-18T15:38:54;68.25;;;24.52;;
39540;SDS011;25219;52.244;21.006;2022-12-18T15:41:21;61.28;;;23.13;;
39540;SDS011;25219;52.244;21.006;2022-12-18T15:43:50;62.13;;;24.38;;
39540;SDS011;25219;52.244;21.006;2022-12-18T15:46:17;69.50;;;25.17;;
39540;SDS011;25219;52.244;21.006;2022-12-18T15:48:44;71.80;;;25.85;;
39540;SDS011;25219;52.244;21.006;2022-12-18T15:51:13;68.43;;;25.05;;
39540;SDS011;25219;52.244;21.006;2022-12-18T15:53:40;63.92;;;24.35;;
39540;SDS011;25219;52.244;21.006;2022-12-18T15:56:09;66.63;;;25.58;;
39540;SDS011;25219;52.244;21.006;2022-12-18T15:58:53;65.13;;;25.75;;
39540;SDS011;25219;52.244;21.006;2022-12-18T16:01:18;64.63;;;25.02;;
39540;SDS011;25219;52.244;21.006;2022-12-18T16:03:44;68.68;;;25.88;;
39540;SDS011;25219;52.244;21.006;2022-12-18T16:06:09;67.53;;;25.70;;